Airfield :
LOGIN :

Register | Disclaimer

   EN    FR    IT 

 










Legend :    VFR   Marginal VFR   IFR   Intensive IFR   Very Intensive IFR
Visi :
Ceiling :
>= 8 km
>= 3000ft
5 to 8 km
1000 to 3000 ft
1500m to 5 km
500 to 1000 ft
800 to 1500m
200 to 500 ft
< 800m
< 200 ft
Symbols :   Thunderstorms  Fog  Heavy snow  Heavy precipitations  Wind > 20 kt
SIGMETs :     Misc.  Thunderstorms  Icing  Turbulence  Mountain Waves  Volcanic Ashes






- Airport Elevation : 202 ft
- IATA code : LGW


EGKK - London Gatwick

CURRENT METAR :
  • 150850Z VRB01KT 8000 BKN005 12/12 Q1004

EXPIRED METARs :
  • 150820Z VRB03KT 5000 -RA BR BKN004 12/12 Q1004
  • 150750Z VRB03KT 7000 BKN005 12/12 Q1004
  • 150720Z VRB02KT 6000 BKN005 12/12 Q1003
  • 150650Z VRB02KT 4000 -RADZ BKN004 11/11 Q1003 REDZ
  • 150620Z VRB03KT 4000 DZ BKN004 11/11 Q1003

TAF AMD TAF EGKK
Valid from the 15 at 08:00 until the 16 at 12:00 UTC


150834Z 1508/1612 22005KT 9999 BKN006
PROB30
TEMPO 1508/1509 4000 SHRA BR BKN004
BECMG 1509/1511 FEW015
PROB30
TEMPO 1512/1517 7000 SHRA
TEMPO 1600/1612 7000 RA BKN010
PROB40
TEMPO 1601/1611 18015G25KT 3500 RADZ BKN005



MET'MAP, your aeronautical weather chart ! - Copyright ORBIFLY December 2007 - Disclaimer

ORBIFLY MET'MAP TEAM :

Programming & Development : Alexandra Zaïnal
Concept & Development : Baudouin d'Aumeries
Co-Development & Prog : Marc-Olivier Méhu
Technical & hardware support : Manuel Goepfert

Contact : metmap@orbifly.com




SOURCES & CREDITS :

   NOAA